createdAt,value
2017-05-10T00:01:04.421Z,9.82
2017-05-10T00:03:35.195Z,11.34
2017-05-10T00:06:06.074Z,10.54
2017-05-10T00:08:36.870Z,10.42
2017-05-10T00:11:07.676Z,11.64
2017-05-10T00:13:39.395Z,10.92
2017-05-10T00:16:10.238Z,10.72
2017-05-10T00:18:41.924Z,11.34
2017-05-10T00:21:12.724Z,11.10
2017-05-10T00:23:43.511Z,10.66
2017-05-10T00:26:14.358Z,11.08
2017-05-10T00:28:45.150Z,10.56
2017-05-10T00:31:16.002Z,10.04
2017-05-10T00:33:46.775Z,11.84
2017-05-10T00:36:17.599Z,9.72
2017-05-10T00:38:48.374Z,10.52
2017-05-10T00:41:19.183Z,10.26
2017-05-10T00:43:49.968Z,11.22
2017-05-10T00:46:20.795Z,11.16
2017-05-10T00:48:51.575Z,12.56
2017-05-10T00:51:22.384Z,11.00
2017-05-10T00:53:53.142Z,11.68
2017-05-10T00:56:24.003Z,10.00
2017-05-10T00:58:54.801Z,12.20
2017-05-10T01:01:25.646Z,10.98
2017-05-10T01:03:56.436Z,8.98
2017-05-10T01:06:27.250Z,10.16
2017-05-10T01:08:58.858Z,10.04
2017-05-10T01:11:29.681Z,8.66
2017-05-10T01:14:00.517Z,8.04
2017-05-10T01:16:31.376Z,8.48
2017-05-10T01:19:02.144Z,7.50
2017-05-10T01:21:32.975Z,8.74
2017-05-10T01:24:03.778Z,8.18
2017-05-10T01:26:34.611Z,7.32
2017-05-10T01:29:05.384Z,7.78
2017-05-10T01:31:36.195Z,6.86
2017-05-10T01:34:06.947Z,6.56
2017-05-10T01:36:37.752Z,6.92
2017-05-10T01:39:08.515Z,6.68
2017-05-10T01:41:39.352Z,7.10
2017-05-10T01:44:09.741Z,7.38
2017-05-10T01:46:40.529Z,6.46
2017-05-10T01:49:11.308Z,6.60
2017-05-10T01:51:42.130Z,6.54
2017-05-10T01:54:12.898Z,7.24
2017-05-10T01:56:44.445Z,6.82
2017-05-10T01:59:16.658Z,6.94
2017-05-10T02:01:49.171Z,6.22
2017-05-10T02:04:20.640Z,6.80
2017-05-10T02:06:51.427Z,6.36
2017-05-10T02:09:23.109Z,6.62
2017-05-10T02:11:53.946Z,7.36
2017-05-10T02:14:24.835Z,6.40
2017-05-10T02:16:55.631Z,6.02
2017-05-10T02:19:26.367Z,5.60
2017-05-10T02:21:57.205Z,6.20
2017-05-10T02:24:27.979Z,6.18
2017-05-10T02:26:58.415Z,7.08
2017-05-10T02:29:28.790Z,7.16
2017-05-10T02:31:58.943Z,6.80
2017-05-10T02:34:29.728Z,6.22
2017-05-10T02:37:00.524Z,6.48
2017-05-10T02:39:31.462Z,6.76
2017-05-10T02:42:02.229Z,6.96
2017-05-10T02:44:33.040Z,6.60
2017-05-10T02:47:03.815Z,6.38
2017-05-10T02:49:34.272Z,6.52
2017-05-10T02:52:05.070Z,7.02
2017-05-10T02:54:35.933Z,6.30
2017-05-10T02:57:06.695Z,6.60
2017-05-10T02:59:37.461Z,6.70
2017-05-10T03:02:08.220Z,6.32
2017-05-10T03:04:39.004Z,6.60
2017-05-10T03:07:09.767Z,6.54
2017-05-10T03:09:40.570Z,6.30
2017-05-10T03:12:11.367Z,6.96
2017-05-10T03:14:43.631Z,6.76
2017-05-10T03:17:14.406Z,6.10
2017-05-10T03:19:45.328Z,6.02
2017-05-10T03:22:16.119Z,6.64
2017-05-10T03:24:46.935Z,6.40
2017-05-10T03:27:17.702Z,5.68
2017-05-10T03:29:48.611Z,6.68
2017-05-10T03:32:19.427Z,6.34
2017-05-10T03:34:50.336Z,6.66
2017-05-10T03:37:21.114Z,6.30
2017-05-10T03:39:51.913Z,6.68
2017-05-10T03:42:22.694Z,6.50
2017-05-10T03:44:53.554Z,6.56
2017-05-10T03:47:24.339Z,7.56
2017-05-10T03:49:55.133Z,7.00
2017-05-10T03:52:25.942Z,6.50
2017-05-10T03:54:56.768Z,7.00
2017-05-10T03:57:27.530Z,7.08
2017-05-10T03:59:58.322Z,7.04
2017-05-10T04:02:29.087Z,6.74
2017-05-10T04:04:59.935Z,6.52
2017-05-10T04:07:40.046Z,7.88
2017-05-10T04:10:23.471Z,6.78
2017-05-10T04:13:08.169Z,7.36
2017-05-10T04:15:54.125Z,6.82
2017-05-10T04:18:36.745Z,7.84
2017-05-10T04:21:18.602Z,7.40
2017-05-10T04:23:52.954Z,8.12
2017-05-10T04:26:23.785Z,7.86
2017-05-10T04:28:56.463Z,6.90
2017-05-10T04:31:28.094Z,7.76
2017-05-10T04:33:58.854Z,8.64
2017-05-10T04:36:29.795Z,7.36
2017-05-10T04:39:00.588Z,7.38
2017-05-10T04:41:31.453Z,8.08
2017-05-10T04:44:02.264Z,8.70
2017-05-10T04:46:33.090Z,7.42
2017-05-10T04:49:03.856Z,7.08
2017-05-10T04:51:34.887Z,7.78
2017-05-10T04:54:05.634Z,7.40
2017-05-10T04:56:36.474Z,6.90
2017-05-10T04:59:07.264Z,6.68
2017-05-10T05:01:38.092Z,7.50
2017-05-10T05:04:08.974Z,7.32
2017-05-10T05:06:39.768Z,6.70
2017-05-10T05:09:10.557Z,7.20
2017-05-10T05:11:41.341Z,7.26
2017-05-10T05:14:12.114Z,6.98
2017-05-10T05:16:43.007Z,6.30
2017-05-10T05:19:13.788Z,5.72
2017-05-10T05:21:44.598Z,6.82
2017-05-10T05:24:22.758Z,6.38
2017-05-10T05:27:05.366Z,6.38
2017-05-10T05:29:48.140Z,6.12
2017-05-10T05:32:30.655Z,6.26
2017-05-10T05:35:13.187Z,8.34
2017-05-10T05:37:57.274Z,7.30
2017-05-10T05:40:39.915Z,6.26
2017-05-10T05:43:16.478Z,7.00
2017-05-10T05:45:50.818Z,6.94
2017-05-10T05:48:24.371Z,5.48
2017-05-10T05:51:05.827Z,6.80
2017-05-10T05:53:44.843Z,6.58
2017-05-10T05:56:31.382Z,7.34
2017-05-10T05:59:11.797Z,6.28
2017-05-10T06:01:53.319Z,6.10
2017-05-10T06:04:35.640Z,7.04
2017-05-10T06:07:17.093Z,6.42
2017-05-10T06:09:54.464Z,6.54
2017-05-10T06:12:28.425Z,5.58
2017-05-10T06:15:01.997Z,6.58
2017-05-10T06:17:36.414Z,5.92
2017-05-10T06:20:09.851Z,5.80
2017-05-10T06:22:43.102Z,6.44
2017-05-10T06:25:15.090Z,6.24
2017-05-10T06:27:45.899Z,5.86
2017-05-10T06:30:17.053Z,5.22
2017-05-10T06:32:48.186Z,6.10
2017-05-10T06:35:19.131Z,5.82
2017-05-10T06:37:50.141Z,5.12
2017-05-10T06:40:21.275Z,5.54
2017-05-10T06:42:52.227Z,5.82
2017-05-10T06:45:23.227Z,6.64
2017-05-10T06:47:54.100Z,5.68
2017-05-10T06:50:25.371Z,6.22
2017-05-10T06:52:56.516Z,5.20
2017-05-10T06:55:27.521Z,6.10
2017-05-10T06:57:58.695Z,6.28
2017-05-10T07:00:29.502Z,5.90
2017-05-10T07:03:00.383Z,5.24
2017-05-10T07:05:31.234Z,5.42
2017-05-10T07:08:02.056Z,5.68
2017-05-10T07:10:32.878Z,5.76
2017-05-10T07:13:03.632Z,5.94
2017-05-10T07:15:34.446Z,6.22
2017-05-10T07:18:05.289Z,5.16
2017-05-10T07:20:36.098Z,5.64
2017-05-10T07:23:06.842Z,4.98
2017-05-10T07:25:37.645Z,4.40
2017-05-10T07:28:08.417Z,5.22
2017-05-10T07:30:39.252Z,4.48
2017-05-10T07:33:10.069Z,4.80
2017-05-10T07:35:40.884Z,5.48
2017-05-10T07:38:11.640Z,6.06
2017-05-10T07:40:42.449Z,5.00
2017-05-10T07:43:13.209Z,5.18
2017-05-10T07:45:44.046Z,5.10
2017-05-10T07:48:14.802Z,4.80
2017-05-10T07:50:45.651Z,4.66
2017-05-10T07:53:16.502Z,4.60
2017-05-10T07:55:47.312Z,4.76
2017-05-10T07:58:18.069Z,4.48
2017-05-10T08:00:49.213Z,4.56
2017-05-10T08:03:19.976Z,4.30
2017-05-10T08:05:50.783Z,4.84
2017-05-10T08:08:21.536Z,4.48
2017-05-10T08:10:52.368Z,4.42
2017-05-10T08:13:23.147Z,4.62
2017-05-10T08:15:53.946Z,4.84
2017-05-10T08:18:24.570Z,4.34
2017-05-10T08:20:55.403Z,4.54
2017-05-10T08:23:26.267Z,4.28
2017-05-10T08:25:57.091Z,5.10
2017-05-10T08:28:27.860Z,4.48
2017-05-10T08:30:58.682Z,5.18
2017-05-10T08:33:29.457Z,4.68
2017-05-10T08:36:00.308Z,4.18
2017-05-10T08:38:31.102Z,5.24
2017-05-10T08:41:02.114Z,4.70
2017-05-10T08:43:32.919Z,4.78
2017-05-10T08:46:03.707Z,4.50
2017-05-10T08:48:34.503Z,3.96
2017-05-10T08:51:05.323Z,4.76
2017-05-10T08:53:36.102Z,5.68
2017-05-10T08:56:06.914Z,4.74
2017-05-10T08:58:37.703Z,6.12
2017-05-10T09:01:08.513Z,6.38
2017-05-10T09:03:39.292Z,5.80
2017-05-10T09:06:10.078Z,6.18
2017-05-10T09:08:40.827Z,7.98
2017-05-10T09:11:11.639Z,6.48
2017-05-10T09:13:42.407Z,7.12
2017-05-10T09:16:13.279Z,8.10
2017-05-10T09:18:44.077Z,7.60
2017-05-10T09:21:14.893Z,7.68
2017-05-10T09:23:45.711Z,8.12
2017-05-10T09:26:16.606Z,7.56
2017-05-10T09:28:47.469Z,8.24
2017-05-10T09:31:18.282Z,8.04
2017-05-10T09:33:49.052Z,7.66
2017-05-10T09:36:19.854Z,7.26
2017-05-10T09:38:50.650Z,7.34
2017-05-10T09:41:21.555Z,8.04
2017-05-10T09:43:52.345Z,7.44
2017-05-10T09:46:23.133Z,8.92
2017-05-10T09:48:53.901Z,7.94
2017-05-10T09:51:24.697Z,8.56
2017-05-10T09:53:55.464Z,9.40
2017-05-10T09:56:26.338Z,8.80
2017-05-10T09:58:57.094Z,8.86
2017-05-10T10:01:27.893Z,8.28
2017-05-10T10:03:58.646Z,8.28
2017-05-10T10:06:29.458Z,7.36
2017-05-10T10:09:00.434Z,8.88
2017-05-10T10:11:31.448Z,8.24
2017-05-10T10:14:02.454Z,9.16
2017-05-10T10:16:33.496Z,8.32
2017-05-10T10:19:04.461Z,8.18
2017-05-10T10:21:35.578Z,9.04
2017-05-10T10:24:06.559Z,7.48
2017-05-10T10:26:37.841Z,8.40
2017-05-10T10:29:08.659Z,9.72
2017-05-10T10:31:39.501Z,9.06
2017-05-10T10:34:10.798Z,8.22
2017-05-10T10:36:41.899Z,9.18
2017-05-10T10:39:12.866Z,9.76
2017-05-10T10:41:43.964Z,8.88
2017-05-10T10:44:14.953Z,9.06
2017-05-10T10:46:45.995Z,8.72
2017-05-10T10:49:16.946Z,7.66
2017-05-10T10:51:47.768Z,8.90
2017-05-10T10:54:18.511Z,8.64
2017-05-10T10:56:49.336Z,8.64
2017-05-10T10:59:20.122Z,7.58
2017-05-10T11:01:50.970Z,7.02
2017-05-10T11:04:21.749Z,8.30
2017-05-10T11:06:52.562Z,7.56
2017-05-10T11:09:23.319Z,7.10
2017-05-10T11:11:54.144Z,7.82
2017-05-10T11:14:24.971Z,7.02
2017-05-10T11:16:56.046Z,6.78
2017-05-10T11:19:27.087Z,6.56
2017-05-10T11:21:58.185Z,6.24
2017-05-10T11:24:29.095Z,7.18
2017-05-10T11:27:00.289Z,7.40
2017-05-10T11:29:31.243Z,6.58
2017-05-10T11:32:02.243Z,6.54
2017-05-10T11:34:33.160Z,6.74
2017-05-10T11:37:04.172Z,7.30
2017-05-10T11:39:35.108Z,5.82
2017-05-10T11:42:06.068Z,6.56
2017-05-10T11:44:36.855Z,5.58
2017-05-10T11:47:07.650Z,6.18
2017-05-10T11:49:38.396Z,5.48
2017-05-10T11:52:09.178Z,5.58
2017-05-10T11:54:39.928Z,6.22
2017-05-10T11:57:10.730Z,6.32
2017-05-10T11:59:41.502Z,5.76
2017-05-10T12:02:12.447Z,5.10
2017-05-10T12:04:43.198Z,5.92
2017-05-10T12:07:14.010Z,5.56
2017-05-10T12:09:44.753Z,5.70
2017-05-10T12:12:16.449Z,6.40
2017-05-10T12:14:47.223Z,5.56
2017-05-10T12:17:18.071Z,5.22
2017-05-10T12:19:48.954Z,5.38
2017-05-10T12:22:19.750Z,5.12
2017-05-10T12:24:50.554Z,4.82
2017-05-10T12:27:21.335Z,5.78
2017-05-10T12:29:52.367Z,5.42
2017-05-10T12:32:23.322Z,5.76
2017-05-10T12:34:54.290Z,5.70
2017-05-10T12:37:25.524Z,4.98
2017-05-10T12:39:56.458Z,5.02
2017-05-10T12:42:27.443Z,4.70
2017-05-10T12:44:58.370Z,5.00
2017-05-10T12:47:29.312Z,4.34
2017-05-10T12:50:00.179Z,4.50
2017-05-10T12:52:31.178Z,4.78
2017-05-10T12:55:02.099Z,4.14
2017-05-10T12:57:33.083Z,4.74
2017-05-10T13:00:04.158Z,4.40
2017-05-10T13:02:35.206Z,5.02
2017-05-10T13:05:06.135Z,4.30
2017-05-10T13:07:37.054Z,5.22
2017-05-10T13:10:07.811Z,4.36
2017-05-10T13:12:38.601Z,3.88
2017-05-10T13:15:09.359Z,4.30
2017-05-10T13:17:40.175Z,5.10
2017-05-10T13:20:10.309Z,5.16
2017-05-10T13:22:41.183Z,5.54
2017-05-10T13:25:12.054Z,5.96
2017-05-10T13:27:42.846Z,5.42
2017-05-10T13:30:13.598Z,4.62
2017-05-10T13:32:44.419Z,4.48
2017-05-10T13:35:15.170Z,4.02
2017-05-10T13:37:46.022Z,4.28
2017-05-10T13:40:16.851Z,3.98
2017-05-10T13:42:47.634Z,4.50
2017-05-10T13:45:18.077Z,5.04
2017-05-10T13:47:48.893Z,4.58
2017-05-10T13:50:19.671Z,4.22
2017-05-10T13:52:51.315Z,5.44
2017-05-10T13:55:22.058Z,4.12
2017-05-10T13:57:52.866Z,5.14
2017-05-10T14:00:23.627Z,4.02
2017-05-10T14:02:54.443Z,5.24
2017-05-10T14:05:25.260Z,4.92
2017-05-10T14:07:56.079Z,3.86
2017-05-10T14:10:26.829Z,4.92
2017-05-10T14:12:57.449Z,4.64
2017-05-10T14:15:28.209Z,5.36
2017-05-10T14:17:58.998Z,4.40
2017-05-10T14:20:29.817Z,4.64
2017-05-10T14:23:00.658Z,4.38
2017-05-10T14:25:31.563Z,3.64
2017-05-10T14:28:02.490Z,3.56
2017-05-10T14:30:33.290Z,4.34
2017-05-10T14:33:04.099Z,3.82
2017-05-10T14:35:34.846Z,3.66
2017-05-10T14:38:05.641Z,3.90
2017-05-10T14:40:36.415Z,4.38
2017-05-10T14:43:08.123Z,3.70
2017-05-10T14:45:38.882Z,3.98
2017-05-10T14:48:09.689Z,4.18
2017-05-10T14:50:40.488Z,3.94
2017-05-10T14:53:11.283Z,3.18
2017-05-10T14:55:42.039Z,3.80
2017-05-10T14:58:12.856Z,3.42
2017-05-10T15:00:43.315Z,3.06
2017-05-10T15:03:14.126Z,3.82
2017-05-10T15:05:44.939Z,3.24
2017-05-10T15:08:15.793Z,3.12
2017-05-10T15:10:46.649Z,3.76
2017-05-10T15:13:17.495Z,3.02
2017-05-10T15:15:48.247Z,3.52
2017-05-10T15:18:19.037Z,3.86
2017-05-10T15:20:49.882Z,3.38
2017-05-10T15:23:20.725Z,4.16
2017-05-10T15:25:51.604Z,3.92
2017-05-10T15:28:22.435Z,3.58
2017-05-10T15:30:53.193Z,3.98
2017-05-10T15:33:24.012Z,3.28
2017-05-10T15:35:55.278Z,4.26
2017-05-10T15:38:27.270Z,4.32
2017-05-10T15:41:03.949Z,3.42
2017-05-10T15:43:36.282Z,3.66
2017-05-10T15:46:07.041Z,3.54
2017-05-10T15:48:37.860Z,4.00
2017-05-10T15:51:08.621Z,3.86
2017-05-10T15:53:39.410Z,3.72
2017-05-10T15:56:10.247Z,3.38
2017-05-10T15:58:41.116Z,3.58
2017-05-10T16:01:11.867Z,3.18
2017-05-10T16:03:42.646Z,4.10
2017-05-10T16:06:13.409Z,3.06
2017-05-10T16:08:44.214Z,3.14
2017-05-10T16:11:14.981Z,3.10
2017-05-10T16:13:45.762Z,3.90
2017-05-10T16:16:16.562Z,4.00
2017-05-10T16:18:47.399Z,3.90
2017-05-10T16:21:18.204Z,3.74
2017-05-10T16:23:49.000Z,4.98
2017-05-10T16:26:19.771Z,3.98
2017-05-10T16:28:51.816Z,4.82
2017-05-10T16:31:22.599Z,4.14
2017-05-10T16:33:53.460Z,3.68
2017-05-10T16:36:24.276Z,4.06
2017-05-10T16:38:55.122Z,3.84
2017-05-10T16:41:26.050Z,3.40
2017-05-10T16:43:57.340Z,3.46
2017-05-10T16:46:28.406Z,5.42
2017-05-10T16:48:59.496Z,6.46
2017-05-10T16:51:30.307Z,7.00
2017-05-10T16:54:01.182Z,5.72
2017-05-10T16:56:32.097Z,7.12
2017-05-10T16:59:02.939Z,6.90
2017-05-10T17:01:33.718Z,7.42
2017-05-10T17:04:04.754Z,7.44
2017-05-10T17:06:35.888Z,7.22
2017-05-10T17:09:07.480Z,8.00
2017-05-10T17:11:38.443Z,6.44
2017-05-10T17:14:09.765Z,6.60
2017-05-10T17:16:40.692Z,6.84
2017-05-10T17:19:12.384Z,6.30
2017-05-10T17:21:45.198Z,6.06
2017-05-10T17:24:18.441Z,7.88
2017-05-10T17:26:49.704Z,8.38
2017-05-10T17:29:21.022Z,8.54
2017-05-10T17:31:52.104Z,9.20
2017-05-10T17:34:23.235Z,8.92
2017-05-10T17:36:54.419Z,9.88
2017-05-10T17:39:25.585Z,9.80
2017-05-10T17:41:56.731Z,9.48
2017-05-10T17:44:27.866Z,9.60
2017-05-10T17:46:58.997Z,8.90
2017-05-10T17:49:33.167Z,9.14
2017-05-10T17:52:05.898Z,9.50
2017-05-10T17:54:39.521Z,10.62
2017-05-10T17:57:11.083Z,11.66
2017-05-10T17:59:42.240Z,9.86
2017-05-10T18:02:13.315Z,10.18
2017-05-10T18:04:44.461Z,10.68
2017-05-10T18:07:18.005Z,9.36
2017-05-10T18:09:50.838Z,10.20
2017-05-10T18:12:25.100Z,10.26
2017-05-10T18:14:59.005Z,10.10
2017-05-10T18:17:31.966Z,9.84
2017-05-10T18:20:08.419Z,10.14
2017-05-10T18:22:42.870Z,12.44
2017-05-10T18:25:14.405Z,10.46
2017-05-10T18:27:45.494Z,11.10
2017-05-10T18:30:16.722Z,10.14
2017-05-10T18:32:47.821Z,10.22
2017-05-10T18:35:19.020Z,10.52
2017-05-10T18:37:50.126Z,10.82
2017-05-10T18:40:21.279Z,11.92
2017-05-10T18:42:53.310Z,10.80
2017-05-10T18:45:25.755Z,10.78
2017-05-10T18:47:56.965Z,10.42
2017-05-10T18:50:37.272Z,11.76
2017-05-10T18:53:11.856Z,10.14
2017-05-10T18:55:43.166Z,11.92
2017-05-10T18:58:14.268Z,11.30
2017-05-10T19:00:45.473Z,11.00
2017-05-10T19:03:18.524Z,11.34
2017-05-10T19:05:51.039Z,10.96
2017-05-10T19:08:23.159Z,11.78
2017-05-10T19:10:56.692Z,10.74
2017-05-10T19:13:30.955Z,11.70
2017-05-10T19:16:05.337Z,11.68
2017-05-10T19:18:38.362Z,11.44
2017-05-10T19:21:11.557Z,12.06
2017-05-10T19:23:44.872Z,11.60
2017-05-10T19:26:19.411Z,10.98
2017-05-10T19:28:51.977Z,11.84
2017-05-10T19:31:24.067Z,11.66
2017-05-10T19:33:59.011Z,12.76
2017-05-10T19:36:31.968Z,11.42
2017-05-10T19:39:04.513Z,13.50
2017-05-10T19:41:36.079Z,12.58
2017-05-10T19:44:08.924Z,12.54
2017-05-10T19:46:42.147Z,11.24
2017-05-10T19:49:16.329Z,13.26
2017-05-10T19:51:50.087Z,11.82
2017-05-10T19:57:00.174Z,12.36
2017-05-10T19:59:32.654Z,11.54
2017-05-10T20:02:06.321Z,14.06
2017-05-10T20:04:38.807Z,12.22
2017-05-10T20:07:13.114Z,11.88
2017-05-10T20:09:45.830Z,12.30
2017-05-10T20:12:19.781Z,13.02
2017-05-10T20:14:50.778Z,12.44
2017-05-10T20:17:21.621Z,13.00
2017-05-10T20:19:52.446Z,12.28
2017-05-10T20:22:23.307Z,12.32
2017-05-10T20:24:54.123Z,11.68
2017-05-10T20:27:24.917Z,13.32
2017-05-10T20:29:55.704Z,13.02
2017-05-10T20:32:26.542Z,13.88
2017-05-10T20:34:57.318Z,12.58
2017-05-10T20:37:28.121Z,12.54
2017-05-10T20:39:58.928Z,11.04
2017-05-10T20:42:29.722Z,12.08
2017-05-10T20:45:00.491Z,11.58
2017-05-10T20:47:31.397Z,13.52
2017-05-10T20:50:02.202Z,11.36
2017-05-10T20:52:33.047Z,12.24
2017-05-10T20:55:03.836Z,13.94
2017-05-10T20:57:34.669Z,12.56
2017-05-10T21:00:05.991Z,12.58
2017-05-10T21:02:36.834Z,11.10
2017-05-10T21:05:07.703Z,12.02
2017-05-10T21:07:38.563Z,12.58
2017-05-10T21:10:09.324Z,11.04
2017-05-10T21:12:40.156Z,12.64
2017-05-10T21:15:11.005Z,12.54
2017-05-10T21:17:41.846Z,12.24
2017-05-10T21:20:12.629Z,12.64
2017-05-10T21:22:43.500Z,13.62
2017-05-10T21:25:14.378Z,12.26
2017-05-10T21:27:45.203Z,13.70
2017-05-10T21:30:16.005Z,12.60
2017-05-10T21:32:46.841Z,13.10
2017-05-10T21:35:17.700Z,12.16
2017-05-10T21:37:48.526Z,13.14
2017-05-10T21:40:19.350Z,12.34
2017-05-10T21:42:50.142Z,12.92
2017-05-10T21:45:20.959Z,12.76
2017-05-10T21:47:51.809Z,14.28
2017-05-10T21:50:22.604Z,11.14
2017-05-10T21:52:53.435Z,10.84
2017-05-10T21:55:24.232Z,12.02
2017-05-10T21:57:55.053Z,12.78
2017-05-10T22:00:25.864Z,11.86
2017-05-10T22:02:56.711Z,11.92
2017-05-10T22:05:27.485Z,11.60
2017-05-10T22:07:58.334Z,11.70
2017-05-10T22:10:29.106Z,11.80
2017-05-10T22:13:00.007Z,11.90
2017-05-10T22:15:30.779Z,11.72
2017-05-10T22:18:01.491Z,10.74
2017-05-10T22:20:32.307Z,11.98
2017-05-10T22:23:03.214Z,10.90
2017-05-10T22:25:34.065Z,11.42
2017-05-10T22:28:04.902Z,11.54
2017-05-10T22:30:35.683Z,13.00
2017-05-10T22:33:06.511Z,11.90
2017-05-10T22:35:37.282Z,11.84
2017-05-10T22:38:08.252Z,10.48
2017-05-10T22:40:39.021Z,11.42
2017-05-10T22:43:09.819Z,11.38
2017-05-10T22:45:40.596Z,10.68
2017-05-10T22:48:11.495Z,11.16
2017-05-10T22:50:42.325Z,10.36
2017-05-10T22:53:13.142Z,9.48
2017-05-10T22:55:43.913Z,10.70
2017-05-10T22:58:14.752Z,10.52
2017-05-10T23:00:45.552Z,9.80
2017-05-10T23:03:16.433Z,9.70
2017-05-10T23:05:47.211Z,10.16
2017-05-10T23:08:18.074Z,10.20
2017-05-10T23:10:48.864Z,9.52
2017-05-10T23:13:19.703Z,10.96
2017-05-10T23:15:50.492Z,10.54
2017-05-10T23:18:21.324Z,10.46
2017-05-10T23:20:52.942Z,9.30
2017-05-10T23:23:23.740Z,10.16
2017-05-10T23:25:54.547Z,9.90
2017-05-10T23:28:25.405Z,9.88
2017-05-10T23:30:56.246Z,10.18
2017-05-10T23:33:27.080Z,9.60
2017-05-10T23:35:57.863Z,9.10
2017-05-10T23:38:28.719Z,10.62
2017-05-10T23:40:59.487Z,9.90
2017-05-10T23:43:30.295Z,8.80
2017-05-10T23:46:01.059Z,9.68
2017-05-10T23:48:31.860Z,9.94
2017-05-10T23:51:02.754Z,9.42
2017-05-10T23:53:33.721Z,8.66
2017-05-10T23:56:05.375Z,8.62
2017-05-10T23:58:36.158Z,9.14
